ADDS METAR Data INFO
IDs: Format: Raw Decoded Include TAF

Data at: 1005 UTC 12 Dec 2017

KDCA 120952Z 20006KT 10SM BKN140 OVC200 06/00 A2967 RMK AO2 SLP046 T00560000
KDCA 120852Z 19011KT 10SM BKN140 OVC200 06/M01 A2970 RMK AO2 SLP058 T00611006 56041
KDCA 120752Z 19012KT 10SM BKN140 OVC200 06/01 A2974 RMK AO2 SLP070 T00610006
KDCA 120652Z 18009KT 10SM BKN140 OVC200 06/01 A2979 RMK AO2 SLP086 T00560006
KDCA 120552Z 18007KT 10SM FEW130 BKN200 05/01 A2983 RMK AO2 SLP099 T00500006 10061 20050 56035
KDCA 120452Z 18010KT 10SM BKN130 OVC200 06/01 A2985 RMK AO2 SLP106 T00560011 400940017
KDCA 120352Z 17011KT 10SM BKN130 OVC200 05/01 A2989 RMK AO2 SLP122 T00500006
KDCA 120252Z 17012KT 10SM BKN180 BKN250 05/00 A2993 RMK AO2 SLP134 T00500000 58015
KDCA 120152Z 17010KT 10SM BKN180 BKN250 06/00 A2995 RMK AO2 SLP142 T00560000
KDCA 120052Z 17009KT 10SM BKN190 BKN250 06/M01 A2997 RMK AO2 SLP147 T00561011
KDCA 112352Z 17009KT 10SM SCT250 06/M02 A2997 RMK AO2 SLP149 T00611022 10094 20061 55010
KDCA 112252Z 16007KT 10SM SCT250 07/M02 A2997 RMK AO2 SLP148 T00671022
KDCA 112152Z 16007KT 10SM FEW150 SCT250 07/M01 A2998 RMK AO2 SLP152 T00671011
KDCA 112052Z 18006KT 10SM SCT150 SCT250 08/M02 A3000 RMK AO2 SLP159 T00831022 55011
KDCA 111952Z 17008KT 10SM FEW160 SCT250 09/M03 A3000 RMK AO2 SLP159 T00891028
KDCA 111852Z 14005KT 10SM BKN250 09/M04 A3000 RMK AO2 SLP158 T00891039
KDCA 111752Z VRB04KT 10SM SCT250 09/M04 A3003 RMK AO2 SLP170 T00891039 10089 20017 58025
KDCA 111652Z 16008KT 10SM CLR 08/M03 A3007 RMK AO2 SLP183 T00781028
KDCA 111552Z 15004KT 10SM CLR 06/M01 A3010 RMK AO2 SLP194 T00611006
KDCA 111452Z 18004KT 10SM FEW065 05/00 A3011 RMK AO2 SLP195 T00500000 53011
KDCA 111352Z 18004KT 10SM FEW065 FEW250 03/M02 A3010 RMK AO2 SLP190 T00331017
KDCA 111252Z 20005KT 10SM SCT070 SCT250 02/M02 A3009 RMK AO2 SLP188 T00171017
KDCA 111152Z 22003KT 10SM BKN065 02/M02 A3008 RMK AO2 SLP184 T00221017 10033 20022 51012
KDCA 111052Z 21003KT 10SM BKN070 02/M02 A3007 RMK AO2 SLP182 T00221022
KDCA 110952Z 00000KT 10SM SCT080 SCT150 02/M03 A3006 RMK AO2 SLP177 T00221028
KDCA 110852Z 21004KT 10SM FEW110 BKN150 02/M02 A3004 RMK AO2 SLP172 T00221022 56007
KDCA 110752Z 21006KT 10SM OVC100 03/M02 A3005 RMK AO2 SLP175 T00331017
KDCA 110652Z 16005KT 10SM FEW060 OVC080 03/M02 A3004 RMK AO2 SLP170 T00331022
KDCA 110552Z 21007KT 10SM BKN060 OVC075 03/M02 A3006 RMK AO2 SLP179 T00281022 10033 20028 58000
KDCA 110452Z 21006KT 10SM BKN080 OVC095 03/M02 A3007 RMK AO2 SLP181 T00281022 400501011
KDCA 110352Z 19007KT 10SM OVC110 03/M02 A3006 RMK AO2 SLP178 T00331022
KDCA 110252Z 19007KT 10SM BKN100 BKN250 03/M02 A3006 RMK AO2 SLP179 T00281017 58002
KDCA 110152Z 19007KT 10SM OVC100 03/M02 A3007 RMK AO2 SLP181 T00281022
KDCA 110052Z 19010KT 10SM FEW080 BKN110 03/M03 A3008 RMK AO2 SLP184 T00281028
KDCA 102352Z 19005KT 10SM FEW070 BKN250 03/M04 A3007 RMK AO2 SLP181 T00331044 10050 20033 51008
KDCA 102252Z 23005KT 10SM FEW060 SCT150 04/M05 A3007 RMK AO2 SLP181 T00391050